createdAt,value
2023-01-20T00:01:05.994Z,21.27
2023-01-20T00:05:07.796Z,19.52
2023-01-20T00:10:08.069Z,19.63
2023-01-20T00:15:07.870Z,17.45
2023-01-20T00:20:08.656Z,19.58
2023-01-20T00:25:08.446Z,18.58
2023-01-20T00:30:08.287Z,19.08
2023-01-20T00:35:08.089Z,17.95
2023-01-20T00:40:07.893Z,18.08
2023-01-20T00:45:08.697Z,18.73
2023-01-20T00:50:08.482Z,17.35
2023-01-20T00:55:08.252Z,17.10
2023-01-20T01:00:08.058Z,15.88
2023-01-20T01:05:08.278Z,17.02
2023-01-20T01:10:08.116Z,18.95
2023-01-20T01:15:07.918Z,19.35
2023-01-20T01:20:07.815Z,18.75
2023-01-20T01:25:08.617Z,21.38
2023-01-20T01:30:08.384Z,22.70
2023-01-20T01:35:08.158Z,21.92
2023-01-20T01:40:07.953Z,19.95
2023-01-20T01:45:07.865Z,18.75
2023-01-20T01:50:08.657Z,18.33
2023-01-20T01:55:08.461Z,17.90
2023-01-20T02:00:08.276Z,15.77
2023-01-20T02:05:08.084Z,15.07
2023-01-20T02:10:07.898Z,15.52
2023-01-20T02:15:08.685Z,16.30
2023-01-20T02:20:18.460Z,0
2023-01-20T02:25:08.302Z,14.57
2023-01-20T02:30:08.128Z,14.32
2023-01-20T02:35:07.918Z,13.68
2023-01-20T02:40:08.764Z,16.02
2023-01-20T02:45:08.587Z,14.57
2023-01-20T02:50:08.388Z,14.73
2023-01-20T02:55:08.341Z,13.57
2023-01-20T03:00:08.182Z,14.93
2023-01-20T03:05:07.965Z,13.45
2023-01-20T03:10:07.733Z,12.43
2023-01-20T03:15:08.507Z,12.93
2023-01-20T03:20:08.333Z,12.50
2023-01-20T03:25:08.095Z,11.75
2023-01-20T03:26:26.455Z,11.75
2023-01-20T03:27:33.035Z,12.50
2023-01-20T03:28:36.311Z,12.50
2023-01-20T03:30:07.911Z,11.65
2023-01-20T03:35:08.710Z,11.85
2023-01-20T03:40:08.536Z,12.25
2023-01-20T03:45:08.384Z,11.68
2023-01-20T03:50:08.192Z,12.88
2023-01-20T03:55:07.964Z,15.10
2023-01-20T04:00:07.757Z,13.45
2023-01-20T04:05:08.600Z,16.13
2023-01-20T04:10:08.392Z,16.65
2023-01-20T04:15:08.156Z,15.55
2023-01-20T04:20:07.971Z,15.10
2023-01-20T04:25:07.769Z,17.27
2023-01-20T04:30:08.609Z,16.98
2023-01-20T04:35:08.395Z,16.95
2023-01-20T04:40:08.195Z,17.48
2023-01-20T04:45:07.995Z,17.13
2023-01-20T04:50:07.803Z,18.05
2023-01-20T04:55:08.671Z,18.58
2023-01-20T05:00:08.485Z,17.17
2023-01-20T05:05:02.399Z,16.60
2023-01-20T05:10:02.420Z,16.73
2023-01-20T05:15:02.721Z,15.88
2023-01-20T05:20:02.879Z,15.60
2023-01-20T05:25:03.072Z,15.80
2023-01-20T05:30:02.394Z,15.98
2023-01-20T05:35:02.330Z,17.27
2023-01-20T05:40:02.296Z,18.23
2023-01-20T05:45:02.256Z,18.40
2023-01-20T05:50:02.184Z,17.48
2023-01-20T05:55:02.282Z,19.02
2023-01-20T06:00:02.275Z,18.25
2023-01-20T06:05:02.193Z,17.75
2023-01-20T06:10:02.271Z,17.63
2023-01-20T06:15:02.415Z,17.77
2023-01-20T06:20:02.481Z,16.75
2023-01-20T06:25:02.729Z,15.73
2023-01-20T06:30:02.775Z,18.00
2023-01-20T06:35:02.696Z,18.15
2023-01-20T06:40:02.630Z,19.15
2023-01-20T06:45:02.655Z,20.35
2023-01-20T06:50:02.685Z,18.70
2023-01-20T06:55:02.582Z,19.65
2023-01-20T07:00:02.549Z,16.88
2023-01-20T07:05:02.799Z,17.90
2023-01-20T07:10:02.701Z,18.23
2023-01-20T07:15:02.649Z,18.58
2023-01-20T07:20:02.565Z,20.40
2023-01-20T07:25:02.704Z,18.25
2023-01-20T07:30:02.647Z,18.58
2023-01-20T07:35:02.590Z,18.55
2023-01-20T07:40:02.518Z,19.10
2023-01-20T07:45:02.453Z,18.73
2023-01-20T07:50:02.508Z,19.08
2023-01-20T07:55:02.451Z,18.45
2023-01-20T08:00:02.349Z,18.48
2023-01-20T08:05:02.354Z,17.92
2023-01-20T08:10:02.289Z,17.50
2023-01-20T08:15:02.487Z,15.77
2023-01-20T08:20:02.563Z,19.42
2023-01-20T08:25:02.790Z,18.92
2023-01-20T08:30:03.027Z,17.20
2023-01-20T08:35:01.953Z,19.15
2023-01-20T08:40:01.879Z,21.25
2023-01-20T08:45:02.998Z,20.15
2023-01-20T08:50:02.042Z,20.52
2023-01-20T08:55:01.957Z,19.52
2023-01-20T09:00:01.847Z,19.30
2023-01-20T09:05:02.751Z,18.45
2023-01-20T09:10:02.692Z,18.77
2023-01-20T09:15:04.952Z,19.00
2023-01-20T09:20:01.955Z,18.58
2023-01-20T09:25:01.877Z,16.23
2023-01-20T09:30:02.923Z,16.83
2023-01-20T09:35:03.260Z,16.83
2023-01-20T09:40:02.185Z,17.55
2023-01-20T09:45:02.107Z,16.95
2023-01-20T09:50:12.047Z,0
2023-01-20T09:55:01.955Z,16.58
2023-01-20T10:00:02.009Z,17.90
2023-01-20T10:05:02.160Z,17.73
2023-01-20T10:10:02.210Z,16.83
2023-01-20T10:15:05.962Z,17.63
2023-01-20T10:20:01.887Z,18.35
2023-01-20T10:25:02.846Z,18.58
2023-01-20T10:30:02.673Z,18.42
2023-01-20T10:35:02.502Z,15.98
2023-01-20T10:40:02.547Z,19.65
2023-01-20T10:45:02.444Z,18.52
2023-01-20T10:50:02.431Z,19.50
2023-01-20T10:55:02.329Z,18.25
2023-01-20T11:00:02.188Z,19.55
2023-01-20T11:05:02.110Z,18.73
2023-01-20T11:10:02.066Z,19.05
2023-01-20T11:15:02.016Z,18.80
2023-01-20T11:20:01.885Z,19.25
2023-01-20T11:25:02.769Z,17.83
2023-01-20T11:30:02.688Z,17.23
2023-01-20T11:35:02.599Z,18.05
2023-01-20T11:40:12.423Z,0
2023-01-20T11:45:20.774Z,18.00
2023-01-20T11:50:02.033Z,16.95
2023-01-20T11:55:02.006Z,15.80
2023-01-20T12:00:01.952Z,14.90
2023-01-20T12:05:02.930Z,14.45
2023-01-20T12:10:03.014Z,14.88
2023-01-20T12:15:02.056Z,15.50
2023-01-20T12:20:12.013Z,0
2023-01-20T12:25:01.969Z,13.55
2023-01-20T12:30:01.876Z,14.98
2023-01-20T12:35:02.937Z,13.05
2023-01-20T12:40:01.977Z,13.00
2023-01-20T12:45:01.905Z,12.85
2023-01-20T12:50:03.005Z,12.13
2023-01-20T12:55:02.627Z,12.05
2023-01-20T13:00:02.552Z,11.30
2023-01-20T13:05:02.664Z,11.70
2023-01-20T13:10:02.699Z,10.63
2023-01-20T13:15:12.017Z,9.35
2023-01-20T13:20:01.935Z,9.25
2023-01-20T13:25:01.852Z,10.15
2023-01-20T13:30:02.757Z,9.07
2023-01-20T13:35:02.680Z,9.38
2023-01-20T13:40:02.687Z,10.25
2023-01-20T13:45:02.763Z,9.25
2023-01-20T13:50:02.666Z,10.18
2023-01-20T13:55:02.743Z,9.75
2023-01-20T14:00:02.638Z,9.15
2023-01-20T14:05:02.725Z,8.82
2023-01-20T14:10:02.642Z,8.77
2023-01-20T14:15:02.589Z,9.32
2023-01-20T14:20:02.612Z,8.25
2023-01-20T14:25:02.514Z,8.60
2023-01-20T14:30:02.796Z,7.68
2023-01-20T14:35:02.671Z,8.77
2023-01-20T14:40:02.637Z,9.95
2023-01-20T14:45:02.523Z,10.50
2023-01-20T14:50:02.599Z,10.32
2023-01-20T14:55:02.543Z,11.77
2023-01-20T15:00:02.662Z,11.75
2023-01-20T15:05:02.667Z,11.95
2023-01-20T15:10:02.643Z,12.15
2023-01-20T15:15:02.549Z,12.00
2023-01-20T15:20:02.554Z,10.77
2023-01-20T15:25:02.504Z,10.80
2023-01-20T15:30:13.793Z,0
2023-01-20T15:35:02.992Z,9.90
2023-01-20T15:40:02.095Z,10.77
2023-01-20T15:45:02.386Z,10.93
2023-01-20T15:50:02.928Z,12.55
2023-01-20T15:55:01.962Z,11.45
2023-01-20T16:00:02.107Z,12.65
2023-01-20T16:05:02.202Z,13.05
2023-01-20T16:10:02.901Z,12.20
2023-01-20T16:15:02.843Z,13.15
2023-01-20T16:20:02.833Z,13.63
2023-01-20T16:25:02.812Z,13.38
2023-01-20T16:30:02.965Z,15.15
2023-01-20T16:35:01.847Z,14.05
2023-01-20T16:40:03.057Z,15.70
2023-01-20T16:45:02.572Z,15.23
2023-01-20T16:50:02.460Z,17.10
2023-01-20T16:55:02.388Z,17.63
2023-01-20T17:00:03.079Z,16.92
2023-01-20T17:05:02.345Z,14.70
2023-01-20T17:10:02.289Z,16.38
2023-01-20T17:15:02.419Z,15.45
2023-01-20T17:20:02.474Z,15.60
2023-01-20T17:25:02.613Z,15.65
2023-01-20T17:30:02.770Z,15.00
2023-01-20T17:35:03.780Z,15.10
2023-01-20T17:40:02.831Z,14.57
2023-01-20T17:45:02.922Z,15.60
2023-01-20T17:50:02.990Z,15.40
2023-01-20T17:55:02.929Z,15.25
2023-01-20T18:00:02.101Z,15.13
2023-01-20T18:05:02.161Z,14.82
2023-01-20T18:10:03.707Z,14.05
2023-01-20T18:15:03.366Z,13.23
2023-01-20T18:20:02.752Z,12.98
2023-01-20T18:25:02.715Z,12.80
2023-01-20T18:30:03.519Z,13.88
2023-01-20T18:35:03.700Z,14.13
2023-01-20T18:40:02.556Z,14.80
2023-01-20T18:45:03.212Z,13.57
2023-01-20T18:50:02.170Z,14.15
2023-01-20T18:55:03.035Z,15.07
2023-01-20T19:00:02.981Z,14.23
2023-01-20T19:05:02.153Z,12.98
2023-01-20T19:10:02.366Z,12.85
2023-01-20T19:15:02.428Z,13.20
2023-01-20T19:20:02.539Z,14.13
2023-01-20T19:25:03.222Z,13.68
2023-01-20T19:30:02.155Z,14.15
2023-01-20T19:35:02.332Z,13.02
2023-01-20T19:40:02.266Z,12.85
2023-01-20T19:45:02.323Z,13.27
2023-01-20T19:50:02.336Z,13.27
2023-01-20T19:55:02.589Z,13.98
2023-01-20T20:00:02.463Z,15.57
2023-01-20T20:05:02.623Z,15.10
2023-01-20T20:10:02.566Z,15.57
2023-01-20T20:15:02.795Z,15.75
2023-01-20T20:20:02.869Z,16.40
2023-01-20T20:25:02.749Z,14.88
2023-01-20T20:30:02.984Z,14.57
2023-01-20T20:35:02.133Z,15.35
2023-01-20T20:40:02.281Z,14.93
2023-01-20T20:45:03.292Z,15.15
2023-01-20T20:50:02.515Z,15.95
2023-01-20T20:55:02.431Z,17.25
2023-01-20T21:00:03.385Z,17.38
2023-01-20T21:05:02.350Z,17.85
2023-01-20T21:10:02.365Z,16.17
2023-01-20T21:15:02.306Z,17.67
2023-01-20T21:20:02.334Z,17.70
2023-01-20T21:25:02.550Z,16.67
2023-01-20T21:30:02.618Z,17.02
2023-01-20T21:35:02.860Z,17.92
2023-01-20T21:40:02.925Z,17.75
2023-01-20T21:45:02.863Z,17.63
2023-01-20T21:50:03.129Z,17.50
2023-01-20T21:55:02.450Z,17.15
2023-01-20T22:00:02.372Z,19.75
2023-01-20T22:05:02.629Z,17.27
2023-01-20T22:10:02.614Z,19.05
2023-01-20T22:15:02.621Z,19.58
2023-01-20T22:20:02.470Z,20.20
2023-01-20T22:25:02.708Z,18.95
2023-01-20T22:30:04.029Z,18.38
2023-01-20T22:35:02.091Z,17.48
2023-01-20T22:40:02.510Z,19.30
2023-01-20T22:45:02.877Z,17.00
2023-01-20T22:50:02.782Z,16.90
2023-01-20T22:55:02.695Z,17.08
2023-01-20T23:00:02.743Z,18.42
2023-01-20T23:05:03.243Z,18.10
2023-01-20T23:10:02.387Z,16.45
2023-01-20T23:15:02.455Z,16.40
2023-01-20T23:20:02.388Z,17.35
2023-01-20T23:25:02.378Z,17.17
2023-01-20T23:30:02.430Z,15.65
2023-01-20T23:35:02.421Z,16.10
2023-01-20T23:40:02.802Z,15.48
2023-01-20T23:45:03.405Z,16.42
2023-01-20T23:50:02.354Z,14.88
2023-01-20T23:55:02.306Z,17.40
